sensor_id;sensor_type;location;lat;lon;timestamp;pressure;altitude;pressure_sealevel;temperature;humidity
59951;BME280;45812;53.540;9.774;2023-03-25T00:01:34;99952.69;;;7.95;100.00
59951;BME280;45812;53.540;9.774;2023-03-25T00:04:00;99939.63;;;7.93;100.00
59951;BME280;45812;53.540;9.774;2023-03-25T00:06:28;99932.81;;;7.99;100.00
59951;BME280;45812;53.540;9.774;2023-03-25T00:08:54;99941.09;;;7.96;100.00
59951;BME280;45812;53.540;9.774;2023-03-25T00:11:20;99937.13;;;7.92;100.00
59951;BME280;45812;53.540;9.774;2023-03-25T00:13:45;99941.78;;;7.81;100.00
59951;BME280;45812;53.540;9.774;2023-03-25T00:16:12;99940.97;;;7.81;100.00
59951;BME280;45812;53.540;9.774;2023-03-25T00:18:38;99936.16;;;7.68;100.00
59951;BME280;45812;53.540;9.774;2023-03-25T00:21:05;99936.00;;;7.70;100.00
59951;BME280;45812;53.540;9.774;2023-03-25T00:23:35;99934.16;;;7.70;100.00
59951;BME280;45812;53.540;9.774;2023-03-25T00:26:01;99939.16;;;7.81;100.00
59951;BME280;45812;53.540;9.774;2023-03-25T00:28:29;99925.22;;;7.96;100.00
59951;BME280;45812;53.540;9.774;2023-03-25T00:30:58;99935.97;;;8.10;100.00
59951;BME280;45812;53.540;9.774;2023-03-25T00:33:24;99927.84;;;8.12;100.00
59951;BME280;45812;53.540;9.774;2023-03-25T00:35:51;99923.84;;;8.16;100.00
59951;BME280;45812;53.540;9.774;2023-03-25T00:38:17;99922.69;;;8.35;100.00
59951;BME280;45812;53.540;9.774;2023-03-25T00:40:42;99912.06;;;8.35;100.00
59951;BME280;45812;53.540;9.774;2023-03-25T00:43:09;99920.81;;;8.52;100.00
59951;BME280;45812;53.540;9.774;2023-03-25T00:45:34;99925.94;;;8.53;100.00
59951;BME280;45812;53.540;9.774;2023-03-25T00:48:00;99936.38;;;8.63;100.00
59951;BME280;45812;53.540;9.774;2023-03-25T00:50:25;99925.28;;;8.59;100.00
59951;BME280;45812;53.540;9.774;2023-03-25T00:52:51;99922.81;;;8.58;100.00
59951;BME280;45812;53.540;9.774;2023-03-25T00:55:17;99927.41;;;8.64;100.00
59951;BME280;45812;53.540;9.774;2023-03-25T00:57:43;99918.63;;;8.63;100.00
59951;BME280;45812;53.540;9.774;2023-03-25T01:00:11;99922.09;;;8.64;100.00
59951;BME280;45812;53.540;9.774;2023-03-25T01:02:36;99926.53;;;8.79;100.00
59951;BME280;45812;53.540;9.774;2023-03-25T01:05:03;99924.41;;;8.75;100.00
59951;BME280;45812;53.540;9.774;2023-03-25T01:07:29;99926.00;;;8.84;100.00
59951;BME280;45812;53.540;9.774;2023-03-25T01:09:56;99926.66;;;8.86;100.00
59951;BME280;45812;53.540;9.774;2023-03-25T01:12:23;99919.97;;;8.90;100.00
59951;BME280;45812;53.540;9.774;2023-03-25T01:14:48;99927.94;;;8.90;100.00
59951;BME280;45812;53.540;9.774;2023-03-25T01:17:14;99925.34;;;8.82;100.00
59951;BME280;45812;53.540;9.774;2023-03-25T01:19:39;99926.00;;;8.84;100.00
59951;BME280;45812;53.540;9.774;2023-03-25T01:22:04;99924.66;;;8.88;100.00
59951;BME280;45812;53.540;9.774;2023-03-25T01:24:30;99916.00;;;8.94;100.00
59951;BME280;45812;53.540;9.774;2023-03-25T01:26:56;99916.31;;;8.99;100.00
59951;BME280;45812;53.540;9.774;2023-03-25T01:29:21;99914.59;;;9.06;100.00
59951;BME280;45812;53.540;9.774;2023-03-25T01:31:47;99917.91;;;9.08;100.00
59951;BME280;45812;53.540;9.774;2023-03-25T01:34:13;99903.56;;;8.95;100.00
59951;BME280;45812;53.540;9.774;2023-03-25T01:36:39;99907.06;;;8.87;100.00
59951;BME280;45812;53.540;9.774;2023-03-25T01:39:06;99912.13;;;8.74;100.00
59951;BME280;45812;53.540;9.774;2023-03-25T01:41:34;99921.69;;;8.83;100.00
59951;BME280;45812;53.540;9.774;2023-03-25T01:46:26;99900.41;;;8.91;100.00
59951;BME280;45812;53.540;9.774;2023-03-25T01:48:52;99906.72;;;8.90;100.00
59951;BME280;45812;53.540;9.774;2023-03-25T01:51:21;99903.75;;;8.93;100.00
59951;BME280;45812;53.540;9.774;2023-03-25T01:53:49;99898.03;;;9.04;100.00
59951;BME280;45812;53.540;9.774;2023-03-25T01:56:20;99891.28;;;8.94;100.00
59951;BME280;45812;53.540;9.774;2023-03-25T01:58:46;99892.88;;;9.03;100.00
59951;BME280;45812;53.540;9.774;2023-03-25T02:01:13;99891.22;;;9.02;100.00
59951;BME280;45812;53.540;9.774;2023-03-25T02:03:41;99882.81;;;8.98;100.00
59951;BME280;45812;53.540;9.774;2023-03-25T02:06:23;99885.41;;;9.06;100.00
59951;BME280;45812;53.540;9.774;2023-03-25T02:08:57;99892.63;;;8.90;100.00
59951;BME280;45812;53.540;9.774;2023-03-25T02:11:25;99873.56;;;8.86;100.00
59951;BME280;45812;53.540;9.774;2023-03-25T02:13:54;99875.56;;;8.84;100.00
59951;BME280;45812;53.540;9.774;2023-03-25T02:16:27;99879.34;;;8.90;100.00
59951;BME280;45812;53.540;9.774;2023-03-25T02:25:20;99862.78;;;8.57;100.00
59951;BME280;45812;53.540;9.774;2023-03-25T02:28:16;99864.56;;;8.64;100.00
59951;BME280;45812;53.540;9.774;2023-03-25T02:33:33;99875.19;;;8.64;100.00
59951;BME280;45812;53.540;9.774;2023-03-25T02:41:20;99863.50;;;8.82;100.00
59951;BME280;45812;53.540;9.774;2023-03-25T02:43:56;99860.00;;;8.81;100.00
59951;BME280;45812;53.540;9.774;2023-03-25T02:46:27;99860.66;;;8.83;100.00
59951;BME280;45812;53.540;9.774;2023-03-25T02:48:59;99851.25;;;8.72;100.00
59951;BME280;45812;53.540;9.774;2023-03-25T02:51:34;99846.69;;;8.89;100.00
59951;BME280;45812;53.540;9.774;2023-03-25T02:54:10;99851.69;;;8.84;100.00
59951;BME280;45812;53.540;9.774;2023-03-25T02:56:37;99845.69;;;8.90;100.00
59951;BME280;45812;53.540;9.774;2023-03-25T02:59:05;99851.50;;;8.86;100.00
59951;BME280;45812;53.540;9.774;2023-03-25T03:01:32;99846.22;;;8.86;100.00
59951;BME280;45812;53.540;9.774;2023-03-25T03:03:58;99835.41;;;8.87;100.00
59951;BME280;45812;53.540;9.774;2023-03-25T03:06:24;99842.56;;;8.87;100.00
59951;BME280;45812;53.540;9.774;2023-03-25T03:11:23;99838.66;;;8.74;100.00
59951;BME280;45812;53.540;9.774;2023-03-25T03:17:11;99838.75;;;8.58;100.00
59951;BME280;45812;53.540;9.774;2023-03-25T03:19:47;99834.63;;;8.47;100.00
59951;BME280;45812;53.540;9.774;2023-03-25T03:22:41;99833.63;;;8.48;100.00
59951;BME280;45812;53.540;9.774;2023-03-25T03:25:18;99831.81;;;8.49;100.00
59951;BME280;45812;53.540;9.774;2023-03-25T03:28:09;99840.41;;;8.51;100.00
59951;BME280;45812;53.540;9.774;2023-03-25T03:33:18;99838.41;;;8.53;100.00
59951;BME280;45812;53.540;9.774;2023-03-25T03:36:02;99831.38;;;8.37;100.00
59951;BME280;45812;53.540;9.774;2023-03-25T03:38:50;99832.53;;;8.35;100.00
59951;BME280;45812;53.540;9.774;2023-03-25T03:41:20;99837.16;;;8.41;100.00
59951;BME280;45812;53.540;9.774;2023-03-25T03:43:51;99832.81;;;8.48;100.00
59951;BME280;45812;53.540;9.774;2023-03-25T03:46:22;99832.25;;;8.61;100.00
59951;BME280;45812;53.540;9.774;2023-03-25T03:49:00;99831.09;;;8.63;100.00
59951;BME280;45812;53.540;9.774;2023-03-25T03:51:31;99832.38;;;8.67;100.00
59951;BME280;45812;53.540;9.774;2023-03-25T03:54:05;99835.69;;;8.69;100.00
59951;BME280;45812;53.540;9.774;2023-03-25T03:56:41;99839.69;;;8.65;100.00
59951;BME280;45812;53.540;9.774;2023-03-25T03:59:16;99829.06;;;8.65;100.00
59951;BME280;45812;53.540;9.774;2023-03-25T04:01:46;99840.56;;;8.58;100.00
59951;BME280;45812;53.540;9.774;2023-03-25T04:04:19;99837.22;;;8.64;100.00
59951;BME280;45812;53.540;9.774;2023-03-25T04:07:03;99831.34;;;8.76;100.00
59951;BME280;45812;53.540;9.774;2023-03-25T04:09:47;99823.25;;;8.70;100.00
59951;BME280;45812;53.540;9.774;2023-03-25T04:12:26;99827.03;;;8.75;100.00
59951;BME280;45812;53.540;9.774;2023-03-25T04:14:54;99825.41;;;8.74;100.00
59951;BME280;45812;53.540;9.774;2023-03-25T04:17:20;99821.78;;;8.67;100.00
59951;BME280;45812;53.540;9.774;2023-03-25T04:19:46;99821.91;;;8.74;100.00
59951;BME280;45812;53.540;9.774;2023-03-25T04:22:14;99829.53;;;8.77;100.00
59951;BME280;45812;53.540;9.774;2023-03-25T04:24:41;99842.91;;;8.84;100.00
59951;BME280;45812;53.540;9.774;2023-03-25T04:27:08;99855.69;;;8.49;100.00
59951;BME280;45812;53.540;9.774;2023-03-25T04:29:33;99865.22;;;8.19;100.00
59951;BME280;45812;53.540;9.774;2023-03-25T04:31:59;99855.44;;;8.11;100.00
59951;BME280;45812;53.540;9.774;2023-03-25T04:34:25;99868.75;;;7.87;100.00
59951;BME280;45812;53.540;9.774;2023-03-25T04:36:51;99848.25;;;7.73;100.00
59951;BME280;45812;53.540;9.774;2023-03-25T04:39:19;99843.56;;;7.91;100.00
59951;BME280;45812;53.540;9.774;2023-03-25T04:41:49;99833.63;;;7.93;100.00
59951;BME280;45812;53.540;9.774;2023-03-25T04:44:16;99835.28;;;7.94;100.00
59951;BME280;45812;53.540;9.774;2023-03-25T04:46:41;99834.94;;;7.97;100.00
59951;BME280;45812;53.540;9.774;2023-03-25T04:49:16;99842.59;;;7.84;100.00
59951;BME280;45812;53.540;9.774;2023-03-25T04:51:43;99835.81;;;7.81;100.00
59951;BME280;45812;53.540;9.774;2023-03-25T04:54:09;99834.81;;;7.74;100.00
59951;BME280;45812;53.540;9.774;2023-03-25T04:56:35;99834.34;;;7.71;100.00
59951;BME280;45812;53.540;9.774;2023-03-25T04:59:00;99837.31;;;7.76;100.00
59951;BME280;45812;53.540;9.774;2023-03-25T05:01:28;99845.09;;;7.69;100.00
59951;BME280;45812;53.540;9.774;2023-03-25T05:04:01;99853.88;;;7.70;100.00
59951;BME280;45812;53.540;9.774;2023-03-25T05:06:32;99850.38;;;7.77;100.00
59951;BME280;45812;53.540;9.774;2023-03-25T05:08:59;99844.94;;;7.71;100.00
59951;BME280;45812;53.540;9.774;2023-03-25T05:11:29;99849.56;;;7.77;100.00
59951;BME280;45812;53.540;9.774;2023-03-25T05:13:54;99846.72;;;7.78;100.00
59951;BME280;45812;53.540;9.774;2023-03-25T05:16:20;99848.72;;;7.76;100.00
59951;BME280;45812;53.540;9.774;2023-03-25T05:18:45;99845.09;;;7.69;100.00
59951;BME280;45812;53.540;9.774;2023-03-25T05:21:10;99849.06;;;7.73;100.00
59951;BME280;45812;53.540;9.774;2023-03-25T05:23:36;99852.53;;;7.74;100.00
59951;BME280;45812;53.540;9.774;2023-03-25T05:26:02;99844.41;;;7.75;100.00
59951;BME280;45812;53.540;9.774;2023-03-25T05:28:27;99841.44;;;7.78;100.00
59951;BME280;45812;53.540;9.774;2023-03-25T05:30:53;99848.72;;;7.76;100.00
59951;BME280;45812;53.540;9.774;2023-03-25T05:33:19;99837.47;;;7.74;100.00
59951;BME280;45812;53.540;9.774;2023-03-25T05:35:45;99850.72;;;7.74;100.00
59951;BME280;45812;53.540;9.774;2023-03-25T05:38:11;99856.19;;;7.73;100.00
59951;BME280;45812;53.540;9.774;2023-03-25T05:40:46;99866.47;;;7.51;100.00
59951;BME280;45812;53.540;9.774;2023-03-25T05:43:15;99863.66;;;7.37;100.00
59951;BME280;45812;53.540;9.774;2023-03-25T05:45:41;99868.78;;;7.38;100.00
59951;BME280;45812;53.540;9.774;2023-03-25T05:48:08;99855.03;;;7.35;100.00
59951;BME280;45812;53.540;9.774;2023-03-25T05:50:36;99862.34;;;7.49;100.00
59951;BME280;45812;53.540;9.774;2023-03-25T05:53:01;99888.00;;;7.48;100.00
59951;BME280;45812;53.540;9.774;2023-03-25T05:55:27;99884.50;;;7.56;100.00
59951;BME280;45812;53.540;9.774;2023-03-25T05:57:52;99871.28;;;7.64;100.00
59951;BME280;45812;53.540;9.774;2023-03-25T06:00:18;99874.56;;;7.66;100.00
59951;BME280;45812;53.540;9.774;2023-03-25T06:02:45;99876.88;;;7.53;100.00
59951;BME280;45812;53.540;9.774;2023-03-25T06:05:13;99876.22;;;7.51;100.00
59951;BME280;45812;53.540;9.774;2023-03-25T06:07:43;99883.69;;;7.47;100.00
59951;BME280;45812;53.540;9.774;2023-03-25T06:10:11;99880.53;;;7.36;100.00
59951;BME280;45812;53.540;9.774;2023-03-25T06:12:37;99874.41;;;7.35;100.00
59951;BME280;45812;53.540;9.774;2023-03-25T06:15:11;99875.56;;;7.57;100.00
59951;BME280;45812;53.540;9.774;2023-03-25T06:17:37;99882.50;;;7.58;100.00
59951;BME280;45812;53.540;9.774;2023-03-25T06:20:07;99872.25;;;7.71;100.00
59951;BME280;45812;53.540;9.774;2023-03-25T06:22:38;99904.84;;;7.55;100.00
59951;BME280;45812;53.540;9.774;2023-03-25T06:25:03;99885.16;;;7.66;100.00
59951;BME280;45812;53.540;9.774;2023-03-25T06:27:28;99892.47;;;7.64;100.00
59951;BME280;45812;53.540;9.774;2023-03-25T06:29:58;99891.13;;;7.68;100.00
59951;BME280;45812;53.540;9.774;2023-03-25T06:32:23;99885.16;;;7.66;100.00
59951;BME280;45812;53.540;9.774;2023-03-25T06:34:49;99896.59;;;7.83;100.00
59951;BME280;45812;53.540;9.774;2023-03-25T06:37:15;99891.75;;;7.95;100.00
59951;BME280;45812;53.540;9.774;2023-03-25T06:39:40;99889.72;;;8.13;100.00
59951;BME280;45812;53.540;9.774;2023-03-25T06:42:05;99898.53;;;8.05;100.00
59951;BME280;45812;53.540;9.774;2023-03-25T06:44:31;99883.59;;;8.12;100.00
59951;BME280;45812;53.540;9.774;2023-03-25T06:46:56;99888.63;;;7.83;100.00
59951;BME280;45812;53.540;9.774;2023-03-25T06:49:22;99885.47;;;7.87;100.00
59951;BME280;45812;53.540;9.774;2023-03-25T06:51:47;99909.31;;;7.79;100.00
59951;BME280;45812;53.540;9.774;2023-03-25T06:54:13;99881.00;;;7.80;100.00
59951;BME280;45812;53.540;9.774;2023-03-25T06:56:39;99878.88;;;7.83;100.00
59951;BME280;45812;53.540;9.774;2023-03-25T06:59:04;99885.66;;;7.86;100.00
59951;BME280;45812;53.540;9.774;2023-03-25T07:01:30;99887.97;;;7.89;100.00
59951;BME280;45812;53.540;9.774;2023-03-25T07:03:55;99889.28;;;7.93;100.00
59951;BME280;45812;53.540;9.774;2023-03-25T07:06:21;99882.50;;;7.90;100.00
59951;BME280;45812;53.540;9.774;2023-03-25T07:08:47;99883.47;;;7.98;100.00
59951;BME280;45812;53.540;9.774;2023-03-25T07:11:14;99885.09;;;8.15;100.00
59951;BME280;45812;53.540;9.774;2023-03-25T07:13:40;99891.69;;;8.35;100.00
59951;BME280;45812;53.540;9.774;2023-03-25T07:16:06;99893.84;;;8.40;100.00
59951;BME280;45812;53.540;9.774;2023-03-25T07:18:32;99896.97;;;8.43;100.00
59951;BME280;45812;53.540;9.774;2023-03-25T07:20:58;99879.84;;;8.54;100.00
59951;BME280;45812;53.540;9.774;2023-03-25T07:23:24;99897.56;;;8.62;100.00
59951;BME280;45812;53.540;9.774;2023-03-25T07:25:49;99885.63;;;8.66;100.00
59951;BME280;45812;53.540;9.774;2023-03-25T07:28:14;99885.63;;;8.66;100.00
59951;BME280;45812;53.540;9.774;2023-03-25T07:30:40;99882.44;;;8.70;100.00
59951;BME280;45812;53.540;9.774;2023-03-25T07:33:05;99899.47;;;8.45;100.00
59951;BME280;45812;53.540;9.774;2023-03-25T07:35:31;99893.34;;;8.36;100.00
59951;BME280;45812;53.540;9.774;2023-03-25T07:37:56;99881.41;;;8.40;100.00
59951;BME280;45812;53.540;9.774;2023-03-25T07:40:21;99888.69;;;8.46;100.00
59951;BME280;45812;53.540;9.774;2023-03-25T07:42:47;99891.44;;;8.61;100.00
59951;BME280;45812;53.540;9.774;2023-03-25T07:45:12;99897.34;;;8.71;100.00
59951;BME280;45812;53.540;9.774;2023-03-25T07:47:38;99887.84;;;8.85;100.00
59951;BME280;45812;53.540;9.774;2023-03-25T07:50:03;99885.53;;;8.82;100.00
59951;BME280;45812;53.540;9.774;2023-03-25T07:52:28;99894.81;;;8.86;100.00
59951;BME280;45812;53.540;9.774;2023-03-25T07:54:54;99896.22;;;8.74;100.00
59951;BME280;45812;53.540;9.774;2023-03-25T07:57:19;99891.91;;;8.65;100.00
59951;BME280;45812;53.540;9.774;2023-03-25T07:59:45;99904.09;;;8.43;100.00
59951;BME280;45812;53.540;9.774;2023-03-25T08:02:13;99898.13;;;8.49;100.00
59951;BME280;45812;53.540;9.774;2023-03-25T08:04:38;99903.13;;;8.36;100.00
59951;BME280;45812;53.540;9.774;2023-03-25T08:07:04;99897.56;;;8.62;100.00
59951;BME280;45812;53.540;9.774;2023-03-25T08:09:29;99898.56;;;8.92;100.00
59951;BME280;45812;53.540;9.774;2023-03-25T08:11:54;99888.13;;;9.21;100.00
59951;BME280;45812;53.540;9.774;2023-03-25T08:14:19;99891.16;;;9.18;100.00
59951;BME280;45812;53.540;9.774;2023-03-25T08:16:45;99904.66;;;9.31;100.00
59951;BME280;45812;53.540;9.774;2023-03-25T08:19:11;99890.97;;;9.20;100.00
59951;BME280;45812;53.540;9.774;2023-03-25T08:21:36;99900.91;;;8.95;100.00
59951;BME280;45812;53.540;9.774;2023-03-25T08:24:02;99896.25;;;8.97;100.00
59951;BME280;45812;53.540;9.774;2023-03-25T08:26:29;99902.47;;;8.81;100.00
59951;BME280;45812;53.540;9.774;2023-03-25T08:28:55;99904.81;;;8.76;100.00
59951;BME280;45812;53.540;9.774;2023-03-25T08:31:24;99901.53;;;8.66;100.00
59951;BME280;45812;53.540;9.774;2023-03-25T08:33:51;99903.59;;;8.56;100.00
59951;BME280;45812;53.540;9.774;2023-03-25T08:36:16;99892.44;;;8.60;100.00
59951;BME280;45812;53.540;9.774;2023-03-25T08:38:48;99901.47;;;8.82;100.00
59951;BME280;45812;53.540;9.774;2023-03-25T08:41:13;99906.34;;;9.01;100.00
59951;BME280;45812;53.540;9.774;2023-03-25T08:43:38;99899.75;;;8.89;100.00
59951;BME280;45812;53.540;9.774;2023-03-25T08:46:04;99918.69;;;8.86;100.00
59951;BME280;45812;53.540;9.774;2023-03-25T08:48:29;99926.44;;;8.57;100.00
59951;BME280;45812;53.540;9.774;2023-03-25T08:50:55;99918.06;;;8.37;100.00
59951;BME280;45812;53.540;9.774;2023-03-25T08:53:20;99918.06;;;8.20;100.00
59951;BME280;45812;53.540;9.774;2023-03-25T08:55:45;99916.72;;;8.41;100.00
59951;BME280;45812;53.540;9.774;2023-03-25T08:58:10;99917.69;;;8.32;100.00
59951;BME280;45812;53.540;9.774;2023-03-25T09:00:36;99930.16;;;8.23;100.00
59951;BME280;45812;53.540;9.774;2023-03-25T09:03:03;99928.53;;;8.06;100.00
59951;BME280;45812;53.540;9.774;2023-03-25T09:05:29;99929.16;;;8.16;100.00
59951;BME280;45812;53.540;9.774;2023-03-25T09:07:54;99929.84;;;8.10;100.00
59951;BME280;45812;53.540;9.774;2023-03-25T09:10:20;99920.25;;;7.93;100.00
59951;BME280;45812;53.540;9.774;2023-03-25T09:12:45;99935.97;;;7.78;100.00
59951;BME280;45812;53.540;9.774;2023-03-25T09:15:10;99928.19;;;7.76;100.00
59951;BME280;45812;53.540;9.774;2023-03-25T09:17:37;99928.03;;;7.70;100.00
59951;BME280;45812;53.540;9.774;2023-03-25T09:20:03;99957.31;;;7.52;100.00
59951;BME280;45812;53.540;9.774;2023-03-25T09:22:30;99928.69;;;7.47;100.00
59951;BME280;45812;53.540;9.774;2023-03-25T09:24:55;99924.38;;;7.38;100.00
59951;BME280;45812;53.540;9.774;2023-03-25T09:27:20;99918.59;;;7.51;100.00
59951;BME280;45812;53.540;9.774;2023-03-25T09:29:45;99918.94;;;7.56;100.00
59951;BME280;45812;53.540;9.774;2023-03-25T09:32:11;99913.97;;;7.77;100.00
59951;BME280;45812;53.540;9.774;2023-03-25T09:34:36;99917.94;;;7.89;100.00
59951;BME280;45812;53.540;9.774;2023-03-25T09:37:03;99916.91;;;7.99;100.00
59951;BME280;45812;53.540;9.774;2023-03-25T09:39:28;99922.22;;;7.99;100.00
59951;BME280;45812;53.540;9.774;2023-03-25T09:42:07;99924.69;;;8.16;100.00
59951;BME280;45812;53.540;9.774;2023-03-25T09:47:18;99906.59;;;8.28;100.00
59951;BME280;45812;53.540;9.774;2023-03-25T09:49:46;99908.59;;;8.42;100.00
59951;BME280;45812;53.540;9.774;2023-03-25T09:52:20;99924.63;;;8.49;100.00
59951;BME280;45812;53.540;9.774;2023-03-25T09:54:57;99923.16;;;8.46;100.00
59951;BME280;45812;53.540;9.774;2023-03-25T09:57:27;99922.09;;;8.64;100.00
59951;BME280;45812;53.540;9.774;2023-03-25T09:59:56;99923.97;;;8.94;100.00
59951;BME280;45812;53.540;9.774;2023-03-25T10:02:29;99917.22;;;9.15;100.00
59951;BME280;45812;53.540;9.774;2023-03-25T10:05:10;99917.88;;;9.17;100.00
59951;BME280;45812;53.540;9.774;2023-03-25T10:07:42;99915.00;;;9.49;100.00
59951;BME280;45812;53.540;9.774;2023-03-25T10:13:09;99930.16;;;10.98;100.00
59951;BME280;45812;53.540;9.774;2023-03-25T10:15:45;99905.50;;;12.24;95.07
59951;BME280;45812;53.540;9.774;2023-03-25T10:21:23;99921.22;;;13.22;81.47
59951;BME280;45812;53.540;9.774;2023-03-25T10:24:51;99929.63;;;11.66;91.97
59951;BME280;45812;53.540;9.774;2023-03-25T10:29:23;99931.19;;;10.52;94.83
59951;BME280;45812;53.540;9.774;2023-03-25T10:31:52;99910.50;;;10.99;94.30
59951;BME280;45812;53.540;9.774;2023-03-25T10:34:22;99902.41;;;11.49;90.02
59951;BME280;45812;53.540;9.774;2023-03-25T10:36:53;99924.09;;;10.89;92.07
59951;BME280;45812;53.540;9.774;2023-03-25T10:39:21;99915.78;;;10.63;93.12
59951;BME280;45812;53.540;9.774;2023-03-25T10:42:00;99915.75;;;10.33;94.93
59951;BME280;45812;53.540;9.774;2023-03-25T10:44:27;99916.66;;;10.40;96.91
59951;BME280;45812;53.540;9.774;2023-03-25T10:46:59;99924.34;;;10.06;95.59
59951;BME280;45812;53.540;9.774;2023-03-25T10:49:29;99927.69;;;9.62;98.58
59951;BME280;45812;53.540;9.774;2023-03-25T10:51:55;99908.84;;;9.26;100.00
59951;BME280;45812;53.540;9.774;2023-03-25T10:54:27;99924.19;;;9.16;100.00
59951;BME280;45812;53.540;9.774;2023-03-25T10:56:55;99964.47;;;9.19;100.00
59951;BME280;45812;53.540;9.774;2023-03-25T10:59:28;99946.47;;;8.67;100.00
59951;BME280;45812;53.540;9.774;2023-03-25T11:01:56;99963.94;;;8.29;100.00
59951;BME280;45812;53.540;9.774;2023-03-25T11:04:32;99982.88;;;8.02;100.00
59951;BME280;45812;53.540;9.774;2023-03-25T11:07:00;99946.56;;;8.10;100.00
59951;BME280;45812;53.540;9.774;2023-03-25T11:09:30;99954.69;;;8.09;100.00
59951;BME280;45812;53.540;9.774;2023-03-25T11:12:01;99955.50;;;8.09;100.00
59951;BME280;45812;53.540;9.774;2023-03-25T11:14:28;99951.66;;;8.28;100.00
59951;BME280;45812;53.540;9.774;2023-03-25T11:16:57;99956.81;;;8.30;100.00
59951;BME280;45812;53.540;9.774;2023-03-25T11:19:38;99961.59;;;8.59;100.00
59951;BME280;45812;53.540;9.774;2023-03-25T11:22:14;99944.50;;;9.77;100.00
59951;BME280;45812;53.540;9.774;2023-03-25T11:24:47;99953.03;;;11.28;100.00
59951;BME280;45812;53.540;9.774;2023-03-25T11:27:18;99949.53;;;10.62;100.00
59951;BME280;45812;53.540;9.774;2023-03-25T11:29:59;99949.38;;;10.64;100.00
59951;BME280;45812;53.540;9.774;2023-03-25T11:32:36;99942.00;;;10.36;100.00
59951;BME280;45812;53.540;9.774;2023-03-25T11:37:45;99942.09;;;10.72;96.71
59951;BME280;45812;53.540;9.774;2023-03-25T11:40:16;99936.00;;;11.08;98.26
59951;BME280;45812;53.540;9.774;2023-03-25T11:42:45;99933.34;;;11.29;96.84
59951;BME280;45812;53.540;9.774;2023-03-25T11:45:24;99925.53;;;10.91;95.97
59951;BME280;45812;53.540;9.774;2023-03-25T11:47:50;99921.31;;;12.60;90.55
59951;BME280;45812;53.540;9.774;2023-03-25T11:50:23;99921.53;;;13.06;82.83
59951;BME280;45812;53.540;9.774;2023-03-25T11:52:52;99910.94;;;13.32;75.51
59951;BME280;45812;53.540;9.774;2023-03-25T11:55:22;99923.44;;;12.64;81.89
59951;BME280;45812;53.540;9.774;2023-03-25T11:57:49;99915.63;;;11.79;83.77
59951;BME280;45812;53.540;9.774;2023-03-25T12:00:34;99918.66;;;11.76;83.97
59951;BME280;45812;53.540;9.774;2023-03-25T12:05:38;99910.69;;;11.55;89.82
59951;BME280;45812;53.540;9.774;2023-03-25T12:08:15;99904.91;;;11.15;88.45
59951;BME280;45812;53.540;9.774;2023-03-25T12:13:38;99902.31;;;12.07;83.66
59951;BME280;45812;53.540;9.774;2023-03-25T12:16:29;99897.25;;;12.19;83.07
59951;BME280;45812;53.540;9.774;2023-03-25T12:19:07;99903.09;;;12.01;86.98
59951;BME280;45812;53.540;9.774;2023-03-25T12:25:00;99883.06;;;11.83;85.12
59951;BME280;45812;53.540;9.774;2023-03-25T12:30:09;99921.25;;;10.76;93.32
59951;BME280;45812;53.540;9.774;2023-03-25T12:38:18;99898.44;;;9.99;100.00
59951;BME280;45812;53.540;9.774;2023-03-25T12:44:02;99910.72;;;10.23;100.00
59951;BME280;45812;53.540;9.774;2023-03-25T12:47:01;99900.69;;;10.11;100.00
59951;BME280;45812;53.540;9.774;2023-03-25T12:52:30;99885.38;;;11.08;96.34
59951;BME280;45812;53.540;9.774;2023-03-25T12:55:24;99881.41;;;10.97;97.32
59951;BME280;45812;53.540;9.774;2023-03-25T12:58:26;99873.75;;;10.94;98.17
59951;BME280;45812;53.540;9.774;2023-03-25T13:06:18;99899.09;;;9.87;100.00
59951;BME280;45812;53.540;9.774;2023-03-25T13:08:57;99896.16;;;9.59;100.00
59951;BME280;45812;53.540;9.774;2023-03-25T13:11:36;99895.09;;;9.45;100.00
59951;BME280;45812;53.540;9.774;2023-03-25T13:14:08;99907.72;;;9.20;100.00
59951;BME280;45812;53.540;9.774;2023-03-25T13:16:36;99902.06;;;9.23;100.00
59951;BME280;45812;53.540;9.774;2023-03-25T13:19:14;99893.03;;;9.32;100.00
59951;BME280;45812;53.540;9.774;2023-03-25T13:21:42;99903.25;;;9.44;100.00
59951;BME280;45812;53.540;9.774;2023-03-25T13:24:14;99896.81;;;9.38;100.00
59951;BME280;45812;53.540;9.774;2023-03-25T13:26:43;99910.31;;;9.74;100.00
59951;BME280;45812;53.540;9.774;2023-03-25T13:29:26;99907.88;;;10.40;100.00
59951;BME280;45812;53.540;9.774;2023-03-25T13:31:55;99907.31;;;10.74;100.00
59951;BME280;45812;53.540;9.774;2023-03-25T13:34:29;99905.56;;;10.37;100.00
59951;BME280;45812;53.540;9.774;2023-03-25T13:37:20;99898.25;;;10.01;100.00
59951;BME280;45812;53.540;9.774;2023-03-25T13:43:04;99903.25;;;9.44;100.00
59951;BME280;45812;53.540;9.774;2023-03-25T13:48:16;99886.91;;;9.55;100.00
59951;BME280;45812;53.540;9.774;2023-03-25T13:50:42;99887.78;;;9.85;100.00
59951;BME280;45812;53.540;9.774;2023-03-25T13:53:15;99882.09;;;9.73;100.00
59951;BME280;45812;53.540;9.774;2023-03-25T13:56:16;99892.13;;;9.63;100.00
59951;BME280;45812;53.540;9.774;2023-03-25T14:08:01;99882.81;;;9.21;100.00
59951;BME280;45812;53.540;9.774;2023-03-25T14:11:23;99883.28;;;9.25;100.00
59951;BME280;45812;53.540;9.774;2023-03-25T14:13:50;99878.63;;;9.27;100.00
59951;BME280;45812;53.540;9.774;2023-03-25T14:16:18;99885.84;;;9.18;100.00
59951;BME280;45812;53.540;9.774;2023-03-25T14:18:52;99881.06;;;9.14;100.00
59951;BME280;45812;53.540;9.774;2023-03-25T14:24:04;99878.75;;;9.33;100.00
59951;BME280;45812;53.540;9.774;2023-03-25T14:26:32;99881.47;;;9.25;100.00
59951;BME280;45812;53.540;9.774;2023-03-25T14:29:04;99886.09;;;9.31;100.00
59951;BME280;45812;53.540;9.774;2023-03-25T14:31:31;99895.03;;;9.53;100.00
59951;BME280;45812;53.540;9.774;2023-03-25T14:44:39;99879.41;;;12.54;94.29
59951;BME280;45812;53.540;9.774;2023-03-25T14:50:43;99897.25;;;11.69;100.00
59951;BME280;45812;53.540;9.774;2023-03-25T14:52:51;99899.09;;;11.05;100.00